createdAt,value
2023-09-17T00:01:50.785Z,14.02
2023-09-17T00:04:17.893Z,14.00
2023-09-17T00:06:44.828Z,13.45
2023-09-17T00:09:13.319Z,15.30
2023-09-17T00:11:40.261Z,13.75
2023-09-17T00:14:07.554Z,11.73
2023-09-17T00:16:34.570Z,13.05
2023-09-17T00:19:01.560Z,11.27
2023-09-17T00:21:28.485Z,12.30
2023-09-17T00:23:55.678Z,11.68
2023-09-17T00:26:23.995Z,9.50
2023-09-17T00:28:50.945Z,12.52
2023-09-17T00:31:18.004Z,11.73
2023-09-17T00:33:44.966Z,10.55
2023-09-17T00:36:13.020Z,11.32
2023-09-17T00:38:39.962Z,9.38
2023-09-17T00:41:07.216Z,10.43
2023-09-17T00:43:35.644Z,12.73
2023-09-17T00:46:03.025Z,9.82
2023-09-17T00:48:30.253Z,10.05
2023-09-17T00:50:57.315Z,9.77
2023-09-17T00:53:25.277Z,9.15
2023-09-17T00:55:53.014Z,10.25
2023-09-17T00:58:20.031Z,8.75
2023-09-17T01:00:48.373Z,9.75
2023-09-17T01:03:15.436Z,8.60
2023-09-17T01:05:43.931Z,9.38
2023-09-17T01:08:11.329Z,8.48
2023-09-17T01:10:39.067Z,9.68
2023-09-17T01:13:06.291Z,8.98
2023-09-17T01:15:33.340Z,10.18
2023-09-17T01:18:01.890Z,8.38
2023-09-17T01:20:34.099Z,9.38
2023-09-17T01:23:05.349Z,9.18
2023-09-17T01:25:41.174Z,10.60
2023-09-17T01:28:11.021Z,9.35
2023-09-17T01:30:38.115Z,11.43
2023-09-17T01:33:05.439Z,9.57
2023-09-17T01:35:33.720Z,11.75
2023-09-17T01:38:02.394Z,11.95
2023-09-17T01:40:29.960Z,10.50
2023-09-17T01:42:58.833Z,9.27
2023-09-17T01:45:28.332Z,9.68
2023-09-17T01:47:56.038Z,10.35
2023-09-17T01:50:23.666Z,9.75
2023-09-17T01:52:51.023Z,11.90
2023-09-17T01:55:18.017Z,9.25
2023-09-17T01:57:44.911Z,10.35
2023-09-17T02:00:12.910Z,10.38
2023-09-17T02:02:48.711Z,12.02
2023-09-17T02:05:22.722Z,9.68
2023-09-17T02:07:56.666Z,11.63
2023-09-17T02:10:23.670Z,10.65
2023-09-17T02:12:56.632Z,9.38
2023-09-17T02:15:23.559Z,9.55
2023-09-17T02:17:59.649Z,9.32
2023-09-17T02:20:26.591Z,10.95
2023-09-17T02:22:59.707Z,10.02
2023-09-17T02:25:26.598Z,11.75
2023-09-17T02:27:59.621Z,9.07
2023-09-17T02:30:26.590Z,9.30
2023-09-17T02:32:54.934Z,10.25
2023-09-17T02:35:28.668Z,11.70
2023-09-17T02:37:55.673Z,12.32
2023-09-17T02:40:24.905Z,10.63
2023-09-17T02:42:58.659Z,10.43
2023-09-17T02:45:25.709Z,9.90
2023-09-17T02:48:00.775Z,9.55
2023-09-17T02:50:27.706Z,9.45
2023-09-17T02:52:54.640Z,10.75
2023-09-17T02:55:28.695Z,9.73
2023-09-17T02:57:55.618Z,11.45
2023-09-17T03:00:22.519Z,9.05
2023-09-17T03:02:55.943Z,11.18
2023-09-17T03:05:30.692Z,9.52
2023-09-17T03:08:03.676Z,10.75
2023-09-17T03:10:30.644Z,11.30
2023-09-17T03:12:57.682Z,13.10
2023-09-17T03:15:31.648Z,11.27
2023-09-17T03:17:58.608Z,12.13
2023-09-17T03:20:27.947Z,9.73
2023-09-17T03:23:01.673Z,11.00
2023-09-17T03:25:28.689Z,9.57
2023-09-17T03:28:01.721Z,13.38
2023-09-17T03:30:29.064Z,11.57
2023-09-17T03:33:04.353Z,11.48
2023-09-17T03:35:40.730Z,10.45
2023-09-17T03:38:07.613Z,12.30
2023-09-17T03:40:41.795Z,13.23
2023-09-17T03:43:08.834Z,13.00
2023-09-17T03:45:35.747Z,10.80
2023-09-17T03:48:09.665Z,11.27
2023-09-17T03:50:37.917Z,11.53
2023-09-17T03:53:11.658Z,12.73
2023-09-17T03:55:38.614Z,12.02
2023-09-17T03:58:05.679Z,13.65
2023-09-17T04:00:39.685Z,11.18
2023-09-17T04:03:06.634Z,11.80
2023-09-17T04:05:40.646Z,14.38
2023-09-17T04:08:15.663Z,14.38
2023-09-17T04:10:49.731Z,13.15
2023-09-17T04:13:16.807Z,14.20
2023-09-17T04:15:43.747Z,14.45
2023-09-17T04:18:16.661Z,14.43
2023-09-17T04:20:43.586Z,13.48
2023-09-17T04:23:18.667Z,12.25
2023-09-17T04:25:45.585Z,13.18
2023-09-17T04:28:18.719Z,12.65
2023-09-17T04:30:45.669Z,12.73
2023-09-17T04:33:18.741Z,13.90
2023-09-17T04:35:45.698Z,17.30
2023-09-17T04:38:13.948Z,16.27
2023-09-17T04:40:47.716Z,18.73
2023-09-17T04:43:14.683Z,21.20
2023-09-17T04:45:41.664Z,21.30
2023-09-17T04:48:14.686Z,21.25
2023-09-17T04:50:48.360Z,27.73
2023-09-17T04:53:23.668Z,25.70
2023-09-17T04:55:56.710Z,29.45
2023-09-17T04:58:30.803Z,26.08
2023-09-17T05:01:04.666Z,27.42
2023-09-17T05:03:38.768Z,25.88
2023-09-17T05:06:12.682Z,28.00
2023-09-17T05:08:47.708Z,29.98
2023-09-17T05:11:20.683Z,33.40
2023-09-17T05:13:47.668Z,32.33
2023-09-17T05:16:20.756Z,34.97
2023-09-17T05:18:54.697Z,41.45
2023-09-17T05:21:27.696Z,37.93
2023-09-17T05:23:55.945Z,46.50
2023-09-17T05:26:22.884Z,47.75
2023-09-17T05:28:56.793Z,45.30
2023-09-17T05:31:30.806Z,44.72
2023-09-17T05:34:04.693Z,38.53
2023-09-17T05:36:37.673Z,42.25
2023-09-17T05:39:12.710Z,37.20
2023-09-17T05:41:39.573Z,35.00
2023-09-17T05:44:13.714Z,34.28
2023-09-17T05:46:40.663Z,30.75
2023-09-17T05:49:13.676Z,28.67
2023-09-17T05:51:46.725Z,26.83
2023-09-17T05:54:21.706Z,27.48
2023-09-17T05:56:48.593Z,27.67
2023-09-17T05:59:15.500Z,28.05
2023-09-17T06:01:48.803Z,25.88
2023-09-17T06:04:15.818Z,30.80
2023-09-17T06:06:42.738Z,27.63
2023-09-17T06:09:09.677Z,27.85
2023-09-17T06:11:37.977Z,28.02
2023-09-17T06:14:05.001Z,28.55
2023-09-17T06:16:42.346Z,31.08
2023-09-17T06:19:17.319Z,28.17
2023-09-17T06:21:45.281Z,26.30
2023-09-17T06:24:12.230Z,29.98
2023-09-17T06:26:40.525Z,27.73
2023-09-17T06:29:07.422Z,28.75
2023-09-17T06:31:34.504Z,28.98
2023-09-17T06:34:01.687Z,28.35
2023-09-17T06:36:29.514Z,31.50
2023-09-17T06:38:56.494Z,24.65
2023-09-17T06:41:23.421Z,26.30
2023-09-17T06:43:51.830Z,26.23
2023-09-17T06:46:19.115Z,25.13
2023-09-17T06:48:46.143Z,25.45
2023-09-17T06:51:13.021Z,22.40
2023-09-17T06:53:39.951Z,23.33
2023-09-17T06:56:07.030Z,26.27
2023-09-17T06:58:34.050Z,22.58
2023-09-17T07:01:02.494Z,21.05
2023-09-17T07:03:29.409Z,25.60
2023-09-17T07:05:56.299Z,22.38
2023-09-17T07:08:23.334Z,22.25
2023-09-17T07:10:50.300Z,22.63
2023-09-17T07:13:17.207Z,20.17
2023-09-17T07:15:45.373Z,20.90
2023-09-17T07:18:14.187Z,23.35
2023-09-17T07:20:41.346Z,23.48
2023-09-17T07:23:08.440Z,22.80
2023-09-17T07:25:35.466Z,23.05
2023-09-17T07:28:02.440Z,21.05
2023-09-17T07:30:29.365Z,22.48
2023-09-17T07:32:56.419Z,22.92
2023-09-17T07:35:25.375Z,26.00
2023-09-17T07:37:52.368Z,28.27
2023-09-17T07:40:19.389Z,27.73
2023-09-17T07:42:46.325Z,30.67
2023-09-17T07:45:13.232Z,26.60
2023-09-17T07:47:40.413Z,25.23
2023-09-17T07:50:08.236Z,22.58
2023-09-17T07:52:36.617Z,22.75
2023-09-17T07:55:03.858Z,25.48
2023-09-17T07:57:30.821Z,27.13
2023-09-17T07:59:57.991Z,34.10
2023-09-17T08:02:24.975Z,40.33
2023-09-17T08:04:51.912Z,39.05
2023-09-17T08:07:19.046Z,38.03
2023-09-17T08:09:47.322Z,45.40
2023-09-17T08:12:14.242Z,41.42
2023-09-17T08:14:46.033Z,35.83
2023-09-17T08:17:13.101Z,39.58
2023-09-17T08:19:40.043Z,39.35
2023-09-17T08:22:06.989Z,35.95
2023-09-17T08:24:33.920Z,32.95
2023-09-17T08:27:02.225Z,34.30
2023-09-17T08:29:29.170Z,32.90
2023-09-17T08:31:56.225Z,28.08
2023-09-17T08:34:23.269Z,29.70
2023-09-17T08:36:50.229Z,24.23
2023-09-17T08:39:17.184Z,25.92
2023-09-17T08:41:44.595Z,22.70
2023-09-17T08:44:13.885Z,22.48
2023-09-17T08:46:41.979Z,23.08
2023-09-17T08:49:08.994Z,19.88
2023-09-17T08:51:39.155Z,18.27
2023-09-17T08:54:11.148Z,17.60
2023-09-17T08:56:43.214Z,18.55
2023-09-17T08:59:14.249Z,19.30
2023-09-17T09:01:45.580Z,21.60
2023-09-17T09:04:14.736Z,19.23
2023-09-17T09:06:44.151Z,19.30
2023-09-17T09:09:11.742Z,16.92
2023-09-17T09:11:39.065Z,21.77
2023-09-17T09:14:07.016Z,16.65
2023-09-17T09:16:36.009Z,17.15
2023-09-17T09:19:03.371Z,16.40
2023-09-17T09:21:30.376Z,17.27
2023-09-17T09:23:57.475Z,15.38
2023-09-17T09:26:33.680Z,16.85
2023-09-17T09:29:00.844Z,17.00
2023-09-17T09:31:27.901Z,19.25
2023-09-17T09:33:57.336Z,17.60
2023-09-17T09:36:24.461Z,18.58
2023-09-17T09:38:51.555Z,20.00
2023-09-17T09:41:18.780Z,18.15
2023-09-17T09:43:45.820Z,20.45
2023-09-17T09:46:12.970Z,19.50
2023-09-17T09:48:40.738Z,18.23
2023-09-17T09:51:09.257Z,21.13
2023-09-17T09:53:36.252Z,20.10
2023-09-17T09:56:03.876Z,20.35
2023-09-17T09:58:31.183Z,21.95
2023-09-17T10:01:02.649Z,19.00
2023-09-17T10:03:29.624Z,16.55
2023-09-17T10:06:02.429Z,19.50
2023-09-17T10:08:31.321Z,19.70
2023-09-17T10:10:58.429Z,18.08
2023-09-17T10:13:25.535Z,16.08
2023-09-17T10:15:53.245Z,16.83
2023-09-17T10:18:22.017Z,14.07
2023-09-17T10:20:51.614Z,15.82
2023-09-17T10:23:20.134Z,15.50
2023-09-17T10:25:49.808Z,14.00
2023-09-17T10:28:17.650Z,13.55
2023-09-17T10:30:45.285Z,14.27
2023-09-17T10:33:15.491Z,14.48
2023-09-17T10:35:44.301Z,14.93
2023-09-17T10:38:12.899Z,16.50
2023-09-17T10:40:40.369Z,13.95
2023-09-17T10:43:08.924Z,15.88
2023-09-17T10:45:36.834Z,14.68
2023-09-17T10:48:04.994Z,14.80
2023-09-17T10:50:33.554Z,15.05
2023-09-17T10:53:00.518Z,15.07
2023-09-17T10:55:29.776Z,13.40
2023-09-17T10:58:04.455Z,13.07
2023-09-17T11:00:36.088Z,13.98
2023-09-17T11:03:06.474Z,11.60
2023-09-17T11:05:34.442Z,14.23
2023-09-17T11:08:06.007Z,14.32
2023-09-17T11:10:33.278Z,13.23
2023-09-17T11:13:00.842Z,13.07
2023-09-17T11:15:28.052Z,12.63
2023-09-17T11:18:00.479Z,14.80
2023-09-17T11:20:27.681Z,14.02
2023-09-17T11:22:54.677Z,14.18
2023-09-17T11:25:34.505Z,14.75
2023-09-17T11:28:09.098Z,14.57
2023-09-17T11:33:25.061Z,13.23
2023-09-17T11:35:53.115Z,15.18
2023-09-17T11:38:23.952Z,12.32
2023-09-17T11:41:02.791Z,12.90
2023-09-17T11:43:30.476Z,13.15
2023-09-17T11:45:57.691Z,11.50
2023-09-17T11:48:26.155Z,12.90
2023-09-17T11:50:53.430Z,11.15
2023-09-17T11:53:20.366Z,11.50
2023-09-17T11:55:47.419Z,10.52
2023-09-17T11:58:15.388Z,10.15
2023-09-17T12:00:42.578Z,10.73
2023-09-17T12:03:09.628Z,10.88
2023-09-17T12:05:38.194Z,10.75
2023-09-17T12:08:06.294Z,9.43
2023-09-17T12:10:33.587Z,10.60
2023-09-17T12:13:00.576Z,9.82
2023-09-17T12:15:27.684Z,9.13
2023-09-17T12:17:54.789Z,9.27
2023-09-17T12:20:38.133Z,12.00
2023-09-17T12:23:08.081Z,8.93
2023-09-17T12:25:43.139Z,9.00
2023-09-17T12:28:10.218Z,8.50
2023-09-17T12:30:37.261Z,8.60
2023-09-17T12:33:05.002Z,8.35
2023-09-17T12:35:32.062Z,8.13
2023-09-17T12:38:00.359Z,8.50
2023-09-17T12:40:28.148Z,7.95
2023-09-17T12:42:55.072Z,7.38
2023-09-17T12:45:22.149Z,7.82
2023-09-17T12:47:49.141Z,7.57
2023-09-17T12:50:18.288Z,8.45
2023-09-17T12:52:45.321Z,7.38
2023-09-17T12:55:14.450Z,6.95
2023-09-17T12:57:41.439Z,8.38
2023-09-17T13:00:09.938Z,6.90
2023-09-17T13:02:36.917Z,8.95
2023-09-17T13:05:04.391Z,7.38
2023-09-17T13:07:32.693Z,7.43
2023-09-17T13:10:01.741Z,6.85
2023-09-17T13:12:30.152Z,6.25
2023-09-17T13:14:58.226Z,5.95
2023-09-17T13:17:28.091Z,6.40
2023-09-17T13:19:56.670Z,5.07
2023-09-17T13:22:24.044Z,4.95
2023-09-17T13:24:51.072Z,6.20
2023-09-17T13:27:19.565Z,5.03
2023-09-17T13:29:51.439Z,5.97
2023-09-17T13:32:20.010Z,5.80
2023-09-17T13:34:47.913Z,5.57
2023-09-17T13:37:15.542Z,6.60
2023-09-17T13:39:43.931Z,5.43
2023-09-17T13:42:11.236Z,10.30
2023-09-17T13:44:38.445Z,6.32
2023-09-17T13:47:09.041Z,5.78
2023-09-17T13:49:36.006Z,6.13
2023-09-17T13:52:03.202Z,5.80
2023-09-17T13:54:30.212Z,5.95
2023-09-17T13:56:57.147Z,5.68
2023-09-17T13:59:24.061Z,5.60
2023-09-17T14:01:51.035Z,6.75
2023-09-17T14:04:19.648Z,5.60
2023-09-17T14:06:46.588Z,5.53
2023-09-17T14:09:13.602Z,5.68
2023-09-17T14:11:40.502Z,5.47
2023-09-17T14:14:07.426Z,5.50
2023-09-17T14:16:34.423Z,5.60
2023-09-17T14:19:01.315Z,5.68
2023-09-17T14:21:29.696Z,5.30
2023-09-17T14:23:56.619Z,5.10
2023-09-17T14:26:23.570Z,4.75
2023-09-17T14:28:50.964Z,4.72
2023-09-17T14:31:18.099Z,4.40
2023-09-17T14:33:45.097Z,4.53
2023-09-17T14:36:12.038Z,4.20
2023-09-17T14:38:40.306Z,4.65
2023-09-17T14:41:07.283Z,7.65
2023-09-17T14:43:40.525Z,5.18
2023-09-17T14:46:07.895Z,4.97
2023-09-17T14:48:34.881Z,4.60
2023-09-17T14:51:01.884Z,4.80
2023-09-17T14:53:28.836Z,5.25
2023-09-17T14:55:57.120Z,5.00
2023-09-17T14:58:24.102Z,4.90
2023-09-17T15:00:51.162Z,4.15
2023-09-17T15:03:18.333Z,5.10
2023-09-17T15:05:45.362Z,5.53
2023-09-17T15:08:12.317Z,5.05
2023-09-17T15:10:39.310Z,4.88
2023-09-17T15:13:07.571Z,5.47
2023-09-17T15:15:34.457Z,4.97
2023-09-17T15:18:01.359Z,5.95
2023-09-17T15:20:29.246Z,5.78
2023-09-17T15:22:56.202Z,4.82
2023-09-17T15:25:29.460Z,5.53
2023-09-17T15:27:56.610Z,5.85
2023-09-17T15:30:24.948Z,5.47
2023-09-17T15:32:51.971Z,5.63
2023-09-17T15:35:20.804Z,5.22
2023-09-17T15:37:48.370Z,5.97
2023-09-17T15:40:15.543Z,6.00
2023-09-17T15:42:42.591Z,5.35
2023-09-17T15:45:09.885Z,5.43
2023-09-17T15:47:38.343Z,5.75
2023-09-17T15:50:06.382Z,4.97
2023-09-17T15:52:33.297Z,4.95
2023-09-17T15:55:00.269Z,5.32
2023-09-17T15:57:27.170Z,5.57
2023-09-17T15:59:54.069Z,5.03
2023-09-17T16:02:21.266Z,6.18
2023-09-17T16:04:49.883Z,5.40
2023-09-17T16:07:16.850Z,5.22
2023-09-17T16:09:43.719Z,5.78
2023-09-17T16:12:10.728Z,6.75
2023-09-17T16:14:37.680Z,5.60
2023-09-17T16:17:04.880Z,4.80
2023-09-17T16:19:31.873Z,4.85
2023-09-17T16:22:00.166Z,4.68
2023-09-17T16:24:27.084Z,4.85
2023-09-17T16:27:00.528Z,6.72
2023-09-17T16:29:27.452Z,4.47
2023-09-17T16:31:54.384Z,5.03
2023-09-17T16:34:21.374Z,4.88
2023-09-17T16:36:48.309Z,4.28
2023-09-17T16:39:16.587Z,5.30
2023-09-17T16:41:43.598Z,4.38
2023-09-17T16:44:10.582Z,5.25
2023-09-17T16:46:37.539Z,4.38
2023-09-17T16:49:04.493Z,6.32
2023-09-17T16:51:31.387Z,5.40
2023-09-17T16:53:58.269Z,4.72
2023-09-17T16:56:26.580Z,3.75
2023-09-17T16:58:53.624Z,3.97
2023-09-17T17:01:20.828Z,5.57
2023-09-17T17:03:47.885Z,4.13
2023-09-17T17:06:15.044Z,5.95
2023-09-17T17:08:41.987Z,4.35
2023-09-17T17:11:09.010Z,5.85
2023-09-17T17:13:37.285Z,4.25
2023-09-17T17:16:04.219Z,5.80
2023-09-17T17:18:31.194Z,4.20
2023-09-17T17:20:58.371Z,4.22
2023-09-17T17:23:25.331Z,5.32
2023-09-17T17:25:58.637Z,4.25
2023-09-17T17:28:27.652Z,4.20
2023-09-17T17:30:57.370Z,4.28
2023-09-17T17:33:24.337Z,4.70
2023-09-17T17:35:51.226Z,4.20
2023-09-17T17:38:18.240Z,5.40
2023-09-17T17:40:45.301Z,4.47
2023-09-17T17:43:12.262Z,4.82
2023-09-17T17:45:39.365Z,8.23
2023-09-17T17:48:07.804Z,7.28
2023-09-17T17:50:35.026Z,4.55
2023-09-17T17:53:01.992Z,5.30
2023-09-17T17:55:28.908Z,5.32
2023-09-17T17:57:56.025Z,5.85
2023-09-17T18:00:23.068Z,4.65
2023-09-17T18:02:50.238Z,5.78
2023-09-17T18:05:18.767Z,4.53
2023-09-17T18:07:45.973Z,5.47
2023-09-17T18:10:13.240Z,4.65
2023-09-17T18:12:40.488Z,7.18
2023-09-17T18:15:09.393Z,5.32
2023-09-17T18:17:36.516Z,4.80
2023-09-17T18:20:03.976Z,4.93
2023-09-17T18:22:32.440Z,4.63
2023-09-17T18:24:59.338Z,4.10
2023-09-17T18:27:32.625Z,5.20
2023-09-17T18:29:59.501Z,4.57
2023-09-17T18:32:26.437Z,10.75
2023-09-17T18:34:53.533Z,4.57
2023-09-17T18:37:20.466Z,4.28
2023-09-17T18:39:48.912Z,4.40
2023-09-17T18:42:15.882Z,7.13
2023-09-17T18:44:42.867Z,8.13
2023-09-17T18:47:09.826Z,9.63
2023-09-17T18:49:36.761Z,6.00
2023-09-17T18:52:04.086Z,5.22
2023-09-17T18:54:31.011Z,5.80
2023-09-17T18:56:59.255Z,7.57
2023-09-17T18:59:26.322Z,6.65
2023-09-17T19:01:53.368Z,5.78
2023-09-17T19:04:21.250Z,6.13
2023-09-17T19:06:48.372Z,5.70
2023-09-17T19:09:15.299Z,6.88
2023-09-17T19:11:42.270Z,6.70
2023-09-17T19:14:10.625Z,6.18
2023-09-17T19:16:37.548Z,8.15
2023-09-17T19:19:04.805Z,7.15
2023-09-17T19:21:31.819Z,6.38
2023-09-17T19:23:58.836Z,5.47
2023-09-17T19:26:32.690Z,5.18
2023-09-17T19:28:59.687Z,6.13
2023-09-17T19:31:27.937Z,6.57
2023-09-17T19:33:54.884Z,6.68
2023-09-17T19:36:21.813Z,6.95
2023-09-17T19:38:48.785Z,8.73
2023-09-17T19:41:15.721Z,7.68
2023-09-17T19:43:42.688Z,6.35
2023-09-17T19:46:09.719Z,7.22
2023-09-17T19:48:38.402Z,6.80
2023-09-17T19:51:08.767Z,9.07
2023-09-17T19:53:35.670Z,6.53
2023-09-17T19:56:02.767Z,6.45
2023-09-17T19:58:29.654Z,6.35
2023-09-17T20:00:56.730Z,6.45
2023-09-17T20:03:23.838Z,6.03
2023-09-17T20:05:52.263Z,5.80
2023-09-17T20:08:19.443Z,5.63
2023-09-17T20:10:46.443Z,6.00
2023-09-17T20:13:13.428Z,6.85
2023-09-17T20:15:40.390Z,6.07
2023-09-17T20:18:07.460Z,6.32
2023-09-17T20:20:34.536Z,5.63
2023-09-17T20:23:02.911Z,6.55
2023-09-17T20:25:29.974Z,7.63
2023-09-17T20:28:03.784Z,7.35
2023-09-17T20:30:30.719Z,8.20
2023-09-17T20:32:58.106Z,7.63
2023-09-17T20:35:25.627Z,5.80
2023-09-17T20:37:52.709Z,7.18
2023-09-17T20:40:21.086Z,6.10
2023-09-17T20:42:48.418Z,7.18
2023-09-17T20:45:15.404Z,7.28
2023-09-17T20:47:42.421Z,7.13
2023-09-17T20:50:09.949Z,6.40
2023-09-17T20:52:37.464Z,7.20
2023-09-17T20:55:05.055Z,7.22
2023-09-17T20:57:33.336Z,7.53
2023-09-17T21:00:00.948Z,8.65
2023-09-17T21:02:28.265Z,6.57
2023-09-17T21:04:56.454Z,7.25
2023-09-17T21:07:23.447Z,7.18
2023-09-17T21:09:50.661Z,7.63
2023-09-17T21:12:17.711Z,6.57
2023-09-17T21:14:45.935Z,7.68
2023-09-17T21:17:12.971Z,8.07
2023-09-17T21:19:40.005Z,7.10
2023-09-17T21:22:08.417Z,7.25
2023-09-17T21:24:35.545Z,7.28
2023-09-17T21:27:08.647Z,7.07
2023-09-17T21:29:35.975Z,8.02
2023-09-17T21:32:05.297Z,7.70
2023-09-17T21:34:32.338Z,7.05
2023-09-17T21:36:59.227Z,8.20
2023-09-17T21:39:26.221Z,6.97
2023-09-17T21:41:53.168Z,8.13
2023-09-17T21:44:20.119Z,7.32
2023-09-17T21:46:47.087Z,7.70
2023-09-17T21:49:15.344Z,9.15
2023-09-17T21:51:42.367Z,7.93
2023-09-17T21:54:09.259Z,8.45
2023-09-17T21:56:36.235Z,7.35
2023-09-17T21:59:03.303Z,9.02
2023-09-17T22:01:31.634Z,9.00
2023-09-17T22:03:58.570Z,8.48
2023-09-17T22:06:26.867Z,8.98
2023-09-17T22:08:53.998Z,8.85
2023-09-17T22:11:21.133Z,7.18
2023-09-17T22:13:48.113Z,6.97
2023-09-17T22:16:15.087Z,8.57
2023-09-17T22:18:42.010Z,9.27
2023-09-17T22:21:09.359Z,7.40
2023-09-17T22:23:37.642Z,7.95
2023-09-17T22:26:10.812Z,7.28
2023-09-17T22:28:37.728Z,7.85
2023-09-17T22:31:11.742Z,8.02
2023-09-17T22:33:38.806Z,7.65
2023-09-17T22:36:07.512Z,9.45
2023-09-17T22:38:36.178Z,9.57
2023-09-17T22:41:04.455Z,9.13
2023-09-17T22:43:31.368Z,9.00
2023-09-17T22:45:58.337Z,8.80
2023-09-17T22:48:25.408Z,8.05
2023-09-17T22:50:52.554Z,7.63
2023-09-17T22:53:19.549Z,9.65
2023-09-17T22:55:46.456Z,9.15
2023-09-17T22:58:14.973Z,9.60
2023-09-17T23:00:43.466Z,9.13
2023-09-17T23:03:10.465Z,10.18
2023-09-17T23:05:37.462Z,8.35
2023-09-17T23:08:04.950Z,8.15
2023-09-17T23:10:31.956Z,8.32
2023-09-17T23:12:59.089Z,8.98
2023-09-17T23:15:28.604Z,7.43
2023-09-17T23:17:55.582Z,7.57
2023-09-17T23:20:22.551Z,11.05
2023-09-17T23:22:49.568Z,7.70
2023-09-17T23:25:16.668Z,7.90
2023-09-17T23:27:49.692Z,8.75
2023-09-17T23:30:17.376Z,8.35
2023-09-17T23:32:45.699Z,7.82
2023-09-17T23:35:12.628Z,8.55
2023-09-17T23:37:39.560Z,13.75
2023-09-17T23:40:07.858Z,10.90
2023-09-17T23:42:34.881Z,10.93
2023-09-17T23:45:01.797Z,12.65
2023-09-17T23:47:28.941Z,9.52
2023-09-17T23:49:57.307Z,12.20
2023-09-17T23:52:24.312Z,9.88
2023-09-17T23:54:51.328Z,10.15
2023-09-17T23:57:18.239Z,9.93
2023-09-17T23:59:45.104Z,12.35
